createdAt,value
2022-11-15T00:01:18.593Z,40.13
2022-11-15T00:03:46.949Z,48.38
2022-11-15T00:06:14.475Z,43.15
2022-11-15T00:08:41.956Z,41.05
2022-11-15T00:11:12.284Z,43.22
2022-11-15T00:13:40.009Z,45.63
2022-11-15T00:16:07.597Z,44.05
2022-11-15T00:18:35.069Z,42.20
2022-11-15T00:21:13.615Z,48.58
2022-11-15T00:23:41.632Z,50.83
2022-11-15T00:26:12.932Z,52.83
2022-11-15T00:28:40.949Z,43.10
2022-11-15T00:31:12.472Z,47.47
2022-11-15T00:33:39.931Z,61.38
2022-11-15T00:36:10.559Z,51.72
2022-11-15T00:38:40.804Z,51.05
2022-11-15T00:41:10.039Z,53.75
2022-11-15T00:43:38.362Z,56.67
2022-11-15T00:46:05.905Z,55.00
2022-11-15T00:48:33.579Z,65.03
2022-11-15T00:51:01.037Z,57.42
2022-11-15T00:53:29.307Z,60.22
2022-11-15T00:55:57.031Z,61.22
2022-11-15T00:58:24.485Z,58.75
2022-11-15T01:00:51.994Z,60.63
2022-11-15T01:03:19.523Z,54.03
2022-11-15T01:05:47.101Z,57.53
2022-11-15T01:08:16.045Z,58.63
2022-11-15T01:10:43.609Z,59.63
2022-11-15T01:13:11.109Z,62.28
2022-11-15T01:15:42.317Z,60.33
2022-11-15T01:18:10.454Z,63.17
2022-11-15T01:20:44.552Z,61.35
2022-11-15T01:23:12.333Z,47.38
2022-11-15T01:25:39.991Z,67.35
2022-11-15T01:28:07.702Z,65.60
2022-11-15T01:30:35.289Z,59.30
2022-11-15T01:33:02.832Z,59.97
2022-11-15T01:35:30.312Z,64.25
2022-11-15T01:37:57.888Z,64.47
2022-11-15T01:40:25.442Z,55.08
2022-11-15T01:42:52.979Z,62.60
2022-11-15T01:45:20.443Z,56.38
2022-11-15T01:47:53.517Z,56.40
2022-11-15T01:50:34.285Z,56.92
2022-11-15T01:53:01.926Z,56.42
2022-11-15T01:55:30.081Z,63.35
2022-11-15T01:58:03.855Z,55.83
2022-11-15T02:00:32.781Z,61.72
2022-11-15T02:03:00.371Z,59.17
2022-11-15T02:05:27.857Z,62.95
2022-11-15T02:07:56.319Z,67.43
2022-11-15T02:10:25.630Z,60.42
2022-11-15T02:12:54.580Z,48.63
2022-11-15T02:15:22.316Z,56.88
2022-11-15T02:18:04.053Z,59.00
2022-11-15T02:20:54.605Z,52.05
2022-11-15T02:23:45.774Z,65.75
2022-11-15T02:26:50.501Z,66.72
2022-11-15T02:29:20.944Z,56.70
2022-11-15T02:32:02.008Z,58.95
2022-11-15T02:34:42.946Z,62.95
2022-11-15T02:37:33.371Z,61.80
2022-11-15T02:40:07.522Z,66.38
2022-11-15T02:43:02.118Z,65.07
2022-11-15T02:45:39.036Z,58.53
2022-11-15T02:48:08.969Z,59.97
2022-11-15T02:50:36.875Z,62.33
2022-11-15T02:53:04.863Z,62.22
2022-11-15T02:55:34.403Z,56.45
2022-11-15T02:58:17.089Z,50.83
2022-11-15T03:00:53.839Z,58.88
2022-11-15T03:03:50.373Z,58.22
2022-11-15T03:06:26.883Z,59.83
2022-11-15T03:09:04.933Z,62.33
2022-11-15T03:11:38.703Z,59.22
2022-11-15T03:14:31.390Z,79.20
2022-11-15T03:19:56.312Z,60.13
2022-11-15T03:22:27.938Z,53.45
2022-11-15T03:25:00.814Z,57.13
2022-11-15T03:27:35.536Z,59.92
2022-11-15T03:30:07.176Z,59.08
2022-11-15T03:32:40.764Z,52.85
2022-11-15T03:35:15.573Z,62.53
2022-11-15T03:37:55.361Z,52.20
2022-11-15T03:40:31.484Z,49.83
2022-11-15T03:43:09.930Z,56.22
2022-11-15T03:46:09.710Z,56.10
2022-11-15T03:48:42.438Z,48.58
2022-11-15T03:51:10.298Z,59.83
2022-11-15T03:53:37.856Z,41.38
2022-11-15T03:56:05.489Z,47.22
2022-11-15T03:58:32.975Z,38.28
2022-11-15T04:01:01.282Z,46.45
2022-11-15T04:03:29.064Z,47.17
2022-11-15T04:05:56.821Z,45.20
2022-11-15T04:08:24.269Z,41.85
2022-11-15T04:10:52.190Z,41.22
2022-11-15T04:13:19.644Z,37.90
2022-11-15T04:15:47.101Z,37.58
2022-11-15T04:18:14.574Z,34.80
2022-11-15T04:20:59.571Z,34.45
2022-11-15T04:23:52.776Z,40.95
2022-11-15T04:26:23.049Z,44.17
2022-11-15T04:29:08.354Z,37.47
2022-11-15T04:31:35.850Z,42.45
2022-11-15T04:34:03.268Z,36.35
2022-11-15T04:36:47.997Z,40.10
2022-11-15T04:39:15.465Z,42.45
2022-11-15T04:41:43.017Z,38.53
2022-11-15T04:44:10.514Z,37.83
2022-11-15T04:46:38.054Z,31.00
2022-11-15T04:49:05.569Z,37.55
2022-11-15T04:51:33.028Z,36.33
2022-11-15T04:54:00.532Z,38.17
2022-11-15T04:56:28.029Z,37.40
2022-11-15T04:58:55.465Z,37.55
2022-11-15T05:01:22.964Z,34.38
2022-11-15T05:04:07.867Z,35.47
2022-11-15T05:06:35.393Z,39.55
2022-11-15T05:09:03.034Z,37.58
2022-11-15T05:11:30.579Z,33.78
2022-11-15T05:13:58.192Z,37.42
2022-11-15T05:16:25.653Z,39.17
2022-11-15T05:18:54.685Z,32.33
2022-11-15T05:21:22.555Z,31.88
2022-11-15T05:23:50.045Z,34.92
2022-11-15T05:26:19.490Z,31.75
2022-11-15T05:28:47.188Z,30.92
2022-11-15T05:31:17.585Z,32.78
2022-11-15T05:33:46.349Z,27.10
2022-11-15T05:36:35.677Z,26.95
2022-11-15T05:39:04.795Z,33.10
2022-11-15T05:41:58.718Z,28.75
2022-11-15T05:44:27.336Z,30.13
2022-11-15T05:46:56.790Z,32.05
2022-11-15T05:49:29.230Z,30.75
2022-11-15T05:51:56.968Z,27.05
2022-11-15T05:54:25.832Z,26.13
2022-11-15T05:56:54.110Z,27.50
2022-11-15T05:59:22.179Z,29.20
2022-11-15T06:01:49.747Z,36.35
2022-11-15T06:04:17.279Z,29.42
2022-11-15T06:06:44.995Z,35.55
2022-11-15T06:09:12.485Z,26.23
2022-11-15T06:11:39.964Z,26.48
2022-11-15T06:14:07.464Z,29.83
2022-11-15T06:16:34.967Z,24.67
2022-11-15T06:19:02.407Z,30.52
2022-11-15T06:21:30.131Z,25.45
2022-11-15T06:23:57.702Z,31.08
2022-11-15T06:26:25.201Z,30.60
2022-11-15T06:28:52.711Z,29.45
2022-11-15T06:31:20.239Z,30.38
2022-11-15T06:33:50.430Z,29.83
2022-11-15T06:36:18.449Z,32.85
2022-11-15T06:38:46.900Z,31.98
2022-11-15T06:41:15.754Z,28.50
2022-11-15T06:43:43.579Z,25.92
2022-11-15T06:46:11.588Z,31.08
2022-11-15T06:48:39.217Z,28.75
2022-11-15T06:51:06.993Z,26.30
2022-11-15T06:53:34.756Z,27.08
2022-11-15T06:56:03.728Z,27.52
2022-11-15T06:58:31.854Z,37.38
2022-11-15T07:01:05.237Z,27.80
2022-11-15T07:03:33.958Z,27.52
2022-11-15T07:06:07.087Z,30.02
2022-11-15T07:08:35.666Z,23.65
2022-11-15T07:11:05.919Z,29.73
2022-11-15T07:13:35.613Z,24.92
2022-11-15T07:16:08.810Z,28.55
2022-11-15T07:18:38.325Z,28.88
2022-11-15T07:21:07.821Z,27.05
2022-11-15T07:23:38.430Z,32.42
2022-11-15T07:26:06.140Z,33.38
2022-11-15T07:28:33.648Z,25.02
2022-11-15T07:31:08.477Z,24.05
2022-11-15T07:33:37.094Z,31.45
2022-11-15T07:36:07.418Z,25.65
2022-11-15T07:38:42.258Z,22.25
2022-11-15T07:41:10.740Z,25.80
2022-11-15T07:43:38.259Z,21.95
2022-11-15T07:46:10.834Z,25.27
2022-11-15T07:48:44.907Z,34.20
2022-11-15T07:51:17.854Z,20.25
2022-11-15T07:56:13.749Z,26.77
2022-11-15T07:58:41.485Z,26.25
2022-11-15T08:01:11.639Z,21.75
2022-11-15T08:03:39.390Z,24.52
2022-11-15T08:06:07.238Z,30.85
2022-11-15T08:08:34.862Z,20.63
2022-11-15T08:11:02.728Z,28.30
2022-11-15T08:13:30.399Z,23.17
2022-11-15T08:16:02.691Z,26.73
2022-11-15T08:18:30.309Z,22.55
2022-11-15T08:21:01.832Z,23.23
2022-11-15T08:23:30.156Z,16.75
2022-11-15T08:26:05.206Z,20.35
2022-11-15T08:28:34.037Z,17.05
2022-11-15T08:31:01.634Z,25.95
2022-11-15T08:33:30.388Z,17.65
2022-11-15T08:35:59.693Z,24.20
2022-11-15T08:38:29.775Z,20.63
2022-11-15T08:41:03.481Z,17.45
2022-11-15T08:43:31.628Z,15.70
2022-11-15T08:46:00.231Z,14.45
2022-11-15T08:48:27.731Z,18.73
2022-11-15T08:50:57.164Z,14.73
2022-11-15T08:53:25.192Z,13.65
2022-11-15T08:55:52.707Z,16.58
2022-11-15T08:58:20.213Z,15.75
2022-11-15T09:00:47.916Z,14.18
2022-11-15T09:03:16.156Z,14.95
2022-11-15T09:05:43.899Z,17.80
2022-11-15T09:08:40.383Z,13.93
2022-11-15T09:10:59.813Z,11.98
2022-11-15T09:13:27.328Z,13.50
2022-11-15T09:15:54.844Z,15.38
2022-11-15T09:18:23.668Z,19.50
2022-11-15T09:20:51.222Z,15.77
2022-11-15T09:23:20.581Z,13.73
2022-11-15T09:25:48.715Z,14.77
2022-11-15T09:28:16.241Z,15.23
2022-11-15T09:30:43.825Z,13.57
2022-11-15T09:33:13.218Z,14.98
2022-11-15T09:35:42.010Z,15.93
2022-11-15T09:38:09.749Z,15.52
2022-11-15T09:40:39.366Z,11.50
2022-11-15T09:43:47.680Z,12.20
2022-11-15T09:46:18.074Z,14.68
2022-11-15T09:48:57.071Z,8.93
2022-11-15T09:51:49.603Z,8.98
2022-11-15T09:57:41.207Z,9.38
2022-11-15T10:00:44.267Z,6.05
2022-11-15T10:03:17.377Z,12.45
2022-11-15T10:05:48.261Z,12.50
2022-11-15T10:08:30.854Z,6.45
2022-11-15T10:14:02.762Z,5.80
2022-11-15T10:16:51.910Z,8.75
2022-11-15T10:19:35.826Z,8.73
2022-11-15T10:22:12.137Z,6.47
2022-11-15T10:24:44.290Z,8.80
2022-11-15T10:27:17.622Z,8.75
2022-11-15T10:29:47.508Z,13.73
2022-11-15T10:32:18.731Z,9.27
2022-11-15T10:34:47.081Z,7.35
2022-11-15T10:37:14.941Z,6.05
2022-11-15T10:39:42.407Z,9.77
2022-11-15T10:42:29.916Z,6.10
2022-11-15T10:44:57.504Z,16.20
2022-11-15T10:47:39.236Z,7.32
2022-11-15T10:50:29.138Z,6.93
2022-11-15T10:52:57.068Z,6.47
2022-11-15T10:55:33.617Z,10.18
2022-11-15T10:58:36.285Z,17.63
2022-11-15T11:01:12.441Z,6.22
2022-11-15T11:03:41.577Z,4.20
2022-11-15T11:06:17.720Z,3.00
2022-11-15T11:09:06.263Z,3.90
2022-11-15T11:11:49.165Z,5.55
2022-11-15T11:14:28.252Z,7.18
2022-11-15T11:17:02.648Z,5.28
2022-11-15T11:20:04.532Z,2.95
2022-11-15T11:23:00.353Z,4.27
2022-11-15T11:25:59.783Z,5.47
2022-11-15T11:28:39.534Z,3.47
2022-11-15T11:31:27.438Z,3.78
2022-11-15T11:34:31.222Z,7.00
2022-11-15T11:37:32.737Z,6.82
2022-11-15T11:40:15.619Z,4.30
2022-11-15T11:42:49.346Z,3.28
2022-11-15T11:45:34.889Z,2.00
2022-11-15T11:48:15.838Z,2.85
2022-11-15T11:50:46.232Z,7.47
2022-11-15T11:53:16.476Z,4.00
2022-11-15T11:55:54.966Z,5.35
2022-11-15T11:58:37.643Z,4.70
2022-11-15T12:01:17.329Z,4.25
2022-11-15T12:04:15.965Z,2.97
2022-11-15T12:06:58.743Z,1.50
2022-11-15T12:09:47.514Z,4.72
2022-11-15T12:12:34.169Z,3.10
2022-11-15T12:15:22.924Z,5.72
2022-11-15T12:17:50.621Z,2.58
2022-11-15T12:20:30.943Z,4.30
2022-11-15T12:23:07.981Z,5.88
2022-11-15T12:25:52.598Z,7.25
2022-11-15T12:28:27.042Z,4.15
2022-11-15T12:31:07.268Z,5.15
2022-11-15T12:33:48.699Z,5.07
2022-11-15T12:36:22.439Z,6.78
2022-11-15T12:38:49.963Z,5.97
2022-11-15T12:41:19.756Z,8.05
2022-11-15T12:43:49.533Z,4.53
2022-11-15T12:46:44.925Z,2.75
2022-11-15T12:49:27.485Z,3.75
2022-11-15T12:52:00.812Z,3.75
2022-11-15T12:54:30.348Z,2.17
2022-11-15T12:57:07.600Z,3.28
2022-11-15T13:00:02.942Z,3.53
2022-11-15T13:02:41.076Z,4.72
2022-11-15T13:05:19.142Z,3.42
2022-11-15T13:07:46.576Z,2.88
2022-11-15T13:10:14.079Z,9.15
2022-11-15T13:12:47.677Z,5.18
2022-11-15T13:15:15.144Z,7.90
2022-11-15T13:17:52.686Z,3.65
2022-11-15T13:20:24.150Z,6.05
2022-11-15T13:23:03.556Z,7.85
2022-11-15T13:25:55.647Z,8.68
2022-11-15T13:28:28.436Z,4.75
2022-11-15T13:31:01.769Z,5.80
2022-11-15T13:33:36.353Z,4.63
2022-11-15T13:36:09.438Z,5.05
2022-11-15T13:38:39.564Z,2.40
2022-11-15T13:41:22.181Z,1.60
2022-11-15T13:43:51.577Z,2.30
2022-11-15T13:46:22.234Z,2.63
2022-11-15T13:48:55.453Z,2.63
2022-11-15T13:51:29.844Z,4.05
2022-11-15T13:54:03.860Z,2.63
2022-11-15T13:56:34.964Z,2.92
2022-11-15T13:59:10.988Z,6.68
2022-11-15T14:01:39.040Z,5.47
2022-11-15T14:04:06.520Z,4.57
2022-11-15T14:06:34.063Z,5.35
2022-11-15T14:09:13.531Z,2.50
2022-11-15T14:11:58.622Z,4.28
2022-11-15T14:14:27.752Z,5.72
2022-11-15T14:16:57.591Z,10.90
2022-11-15T14:19:25.258Z,5.78
2022-11-15T14:22:14.584Z,3.70
2022-11-15T14:24:44.820Z,4.82
2022-11-15T14:27:27.143Z,7.05
2022-11-15T14:29:55.172Z,5.95
2022-11-15T14:32:25.584Z,4.95
2022-11-15T14:34:59.193Z,7.80
2022-11-15T14:37:34.536Z,4.50
2022-11-15T14:40:03.356Z,5.13
2022-11-15T14:42:31.106Z,3.60
2022-11-15T14:44:58.708Z,3.00
2022-11-15T14:47:26.260Z,4.03
2022-11-15T14:49:53.739Z,1.65
2022-11-15T14:52:32.611Z,4.05
2022-11-15T14:55:02.351Z,3.83
2022-11-15T14:57:30.680Z,8.27
2022-11-15T14:59:58.209Z,8.20
2022-11-15T15:02:28.353Z,3.53
2022-11-15T15:04:56.300Z,4.22
2022-11-15T15:07:24.268Z,4.85
2022-11-15T15:09:51.856Z,2.33
2022-11-15T15:12:25.210Z,3.60
2022-11-15T15:14:52.746Z,3.85
2022-11-15T15:17:20.262Z,3.95
2022-11-15T15:19:47.781Z,4.05
2022-11-15T15:22:18.383Z,4.45
2022-11-15T15:24:46.904Z,4.28
2022-11-15T15:27:14.942Z,5.53
2022-11-15T15:29:42.920Z,3.20
2022-11-15T15:32:12.114Z,6.50
2022-11-15T15:34:40.174Z,10.40
2022-11-15T15:37:23.734Z,4.50
2022-11-15T15:39:55.557Z,3.42
2022-11-15T15:42:24.174Z,2.75
2022-11-15T15:44:52.777Z,3.65
2022-11-15T15:47:25.333Z,3.05
2022-11-15T15:49:52.872Z,1.75
2022-11-15T15:52:20.422Z,7.80
2022-11-15T15:54:47.976Z,2.90
2022-11-15T15:57:16.216Z,4.65
2022-11-15T15:59:43.658Z,6.45
2022-11-15T16:02:14.285Z,4.20
2022-11-15T16:04:42.364Z,4.25
2022-11-15T16:07:19.515Z,4.70
2022-11-15T16:10:02.360Z,3.72
2022-11-15T16:12:36.962Z,4.43
2022-11-15T16:15:04.794Z,4.60
2022-11-15T16:17:35.776Z,4.32
2022-11-15T16:20:03.880Z,1.83
2022-11-15T16:22:31.761Z,2.53
2022-11-15T16:24:59.375Z,3.33
2022-11-15T16:27:27.028Z,7.05
2022-11-15T16:29:54.550Z,3.28
2022-11-15T16:32:22.130Z,5.93
2022-11-15T16:34:49.597Z,2.97
2022-11-15T16:37:26.286Z,2.83
2022-11-15T16:39:58.410Z,4.55
2022-11-15T16:42:28.267Z,2.17
2022-11-15T16:44:55.814Z,6.00
2022-11-15T16:47:24.010Z,2.95
2022-11-15T16:49:51.460Z,3.90
2022-11-15T16:52:21.561Z,2.58
2022-11-15T16:54:49.273Z,6.53
2022-11-15T16:57:17.531Z,6.35
2022-11-15T16:59:45.058Z,7.25
2022-11-15T17:02:15.635Z,3.83
2022-11-15T17:04:43.101Z,4.72
2022-11-15T17:07:10.658Z,5.70
2022-11-15T17:09:38.325Z,4.85
2022-11-15T17:12:05.937Z,5.25
2022-11-15T17:14:33.384Z,2.28
2022-11-15T17:17:00.881Z,2.65
2022-11-15T17:19:28.518Z,6.28
2022-11-15T17:21:56.070Z,7.10
2022-11-15T17:24:23.515Z,2.72
2022-11-15T17:26:51.022Z,4.70
2022-11-15T17:29:18.529Z,5.55
2022-11-15T17:31:46.014Z,5.25
2022-11-15T17:34:13.478Z,5.63
2022-11-15T17:36:40.923Z,3.00
2022-11-15T17:39:08.403Z,7.65
2022-11-15T17:41:35.944Z,5.15
2022-11-15T17:44:04.036Z,5.82
2022-11-15T17:46:31.501Z,2.63
2022-11-15T17:48:59.146Z,12.75
2022-11-15T17:51:27.026Z,5.88
2022-11-15T17:53:54.514Z,7.90
2022-11-15T17:56:24.132Z,6.82
2022-11-15T17:58:56.648Z,5.57
2022-11-15T18:01:27.681Z,6.85
2022-11-15T18:03:56.620Z,6.40
2022-11-15T18:06:25.822Z,5.93
2022-11-15T18:08:55.942Z,9.20
2022-11-15T18:11:24.434Z,6.18
2022-11-15T18:13:55.563Z,5.55
2022-11-15T18:16:25.281Z,5.35
2022-11-15T18:18:53.469Z,7.43
2022-11-15T18:21:26.121Z,8.50
2022-11-15T18:23:59.474Z,5.40
2022-11-15T18:26:28.946Z,10.70
2022-11-15T18:28:58.864Z,7.07
2022-11-15T18:31:28.862Z,6.90
2022-11-15T18:33:57.056Z,7.78
2022-11-15T18:36:30.310Z,5.32
2022-11-15T18:39:03.314Z,10.52
2022-11-15T18:41:31.728Z,4.50
2022-11-15T18:44:01.687Z,10.30
2022-11-15T18:46:33.108Z,14.57
2022-11-15T18:49:02.923Z,7.15
2022-11-15T18:51:32.277Z,7.50
2022-11-15T18:54:03.673Z,5.15
2022-11-15T18:56:33.621Z,11.07
2022-11-15T18:59:03.023Z,5.43
2022-11-15T19:01:38.589Z,9.95
2022-11-15T19:04:09.414Z,7.35
2022-11-15T19:06:44.444Z,4.30
2022-11-15T19:09:15.278Z,6.47
2022-11-15T19:11:44.419Z,5.72
2022-11-15T19:14:14.536Z,9.70
2022-11-15T19:16:49.931Z,7.68
2022-11-15T19:19:20.686Z,6.05
2022-11-15T19:21:48.542Z,6.63
2022-11-15T19:24:16.093Z,4.47
2022-11-15T19:26:44.967Z,9.02
2022-11-15T19:29:13.783Z,7.13
2022-11-15T19:31:41.575Z,7.30
2022-11-15T19:34:09.671Z,6.97
2022-11-15T19:36:46.499Z,9.60
2022-11-15T19:39:17.900Z,5.97
2022-11-15T19:41:46.468Z,8.27
2022-11-15T19:44:14.904Z,7.63
2022-11-15T19:46:44.223Z,8.88
2022-11-15T19:49:12.019Z,10.65
2022-11-15T19:51:42.300Z,7.97
2022-11-15T19:57:18.937Z,5.82
2022-11-15T19:59:46.390Z,6.38
2022-11-15T20:02:13.875Z,7.35
2022-11-15T20:04:41.365Z,12.52
2022-11-15T20:07:09.405Z,10.27
2022-11-15T20:09:37.799Z,9.13
2022-11-15T20:12:05.448Z,6.45
2022-11-15T20:14:32.941Z,10.52
2022-11-15T20:17:00.423Z,7.25
2022-11-15T20:19:27.955Z,7.70
2022-11-15T20:21:55.449Z,9.27
2022-11-15T20:24:23.277Z,7.25
2022-11-15T20:26:50.719Z,8.23
2022-11-15T20:29:18.187Z,8.52
2022-11-15T20:31:46.063Z,9.23
2022-11-15T20:34:13.535Z,8.90
2022-11-15T20:36:40.981Z,8.10
2022-11-15T20:39:08.459Z,9.68
2022-11-15T20:41:36.077Z,9.45
2022-11-15T20:44:03.960Z,9.90
2022-11-15T20:46:31.477Z,9.45
2022-11-15T20:48:58.945Z,8.32
2022-11-15T20:51:26.407Z,13.48
2022-11-15T20:53:53.903Z,11.25
2022-11-15T20:56:22.671Z,8.63
2022-11-15T20:58:51.582Z,9.27
2022-11-15T21:01:23.551Z,9.75
2022-11-15T21:03:57.797Z,8.98
2022-11-15T21:06:26.944Z,12.45
2022-11-15T21:09:12.748Z,8.57
2022-11-15T21:11:58.168Z,9.50
2022-11-15T21:14:25.741Z,9.13
2022-11-15T21:16:53.195Z,8.32
2022-11-15T21:19:25.831Z,11.23
2022-11-15T21:21:57.038Z,7.40
2022-11-15T21:24:24.660Z,8.85
2022-11-15T21:26:52.901Z,10.05
2022-11-15T21:29:20.482Z,9.88
2022-11-15T21:31:50.629Z,8.82
2022-11-15T21:34:19.119Z,9.25
2022-11-15T21:36:46.739Z,9.57
2022-11-15T21:39:14.180Z,9.60
2022-11-15T21:41:41.755Z,8.93
2022-11-15T21:44:09.254Z,14.07
2022-11-15T21:46:37.212Z,10.85
2022-11-15T21:49:06.397Z,10.30
2022-11-15T21:51:34.573Z,11.77
2022-11-15T21:54:02.136Z,10.18
2022-11-15T21:56:30.449Z,11.07
2022-11-15T21:58:58.113Z,11.57
2022-11-15T22:01:44.225Z,13.05
2022-11-15T22:04:12.339Z,12.40
2022-11-15T22:06:40.128Z,9.55
2022-11-15T22:09:08.656Z,12.15
2022-11-15T22:11:36.713Z,10.63
2022-11-15T22:14:04.594Z,11.98
2022-11-15T22:16:32.889Z,11.32
2022-11-15T22:19:00.740Z,11.43
2022-11-15T22:21:28.204Z,11.38
2022-11-15T22:23:55.661Z,12.77
2022-11-15T22:26:24.029Z,15.00
2022-11-15T22:28:52.085Z,14.40
2022-11-15T22:31:19.817Z,12.77
2022-11-15T22:33:47.408Z,11.40
2022-11-15T22:36:15.007Z,14.02
2022-11-15T22:38:42.472Z,13.00
2022-11-15T22:41:10.231Z,14.35
2022-11-15T22:43:38.047Z,13.35
2022-11-15T22:46:06.276Z,17.50
2022-11-15T22:48:39.327Z,13.18
2022-11-15T22:51:07.412Z,14.32
2022-11-15T22:53:34.961Z,14.45
2022-11-15T22:56:04.138Z,14.73
2022-11-15T22:58:33.355Z,18.00
2022-11-15T23:01:03.849Z,11.57
2022-11-15T23:03:32.525Z,11.80
2022-11-15T23:06:07.860Z,12.70
2022-11-15T23:08:36.139Z,13.02
2022-11-15T23:11:37.529Z,10.73
2022-11-15T23:14:05.105Z,12.73
2022-11-15T23:16:35.565Z,12.65
2022-11-15T23:19:09.245Z,10.73
2022-11-15T23:21:59.985Z,12.10
2022-11-15T23:24:28.102Z,11.15
2022-11-15T23:26:58.034Z,11.63
2022-11-15T23:29:27.240Z,16.10
2022-11-15T23:32:13.979Z,11.38
2022-11-15T23:34:43.935Z,9.20
2022-11-15T23:37:13.852Z,12.32
2022-11-15T23:39:41.500Z,12.80
2022-11-15T23:42:19.351Z,11.23
2022-11-15T23:44:49.855Z,10.90
2022-11-15T23:47:21.030Z,15.73
2022-11-15T23:49:48.513Z,11.75
2022-11-15T23:52:17.210Z,12.82
2022-11-15T23:54:45.279Z,12.13
2022-11-15T23:57:12.937Z,12.43
2022-11-15T23:59:44.399Z,15.27
